sensor_id;sensor_type;location;lat;lon;timestamp;pressure;altitude;pressure_sealevel;temperature;humidity
50852;BME280;43953;45.508;-122.806;2023-04-10T00:00:28;101139.63;;;14.54;69.81
50852;BME280;43953;45.508;-122.806;2023-04-10T00:01:01;101156.72;;;14.54;69.69
50852;BME280;43953;45.508;-122.806;2023-04-10T00:01:33;101152.97;;;14.55;69.70
50852;BME280;43953;45.508;-122.806;2023-04-10T00:02:06;101148.38;;;14.56;69.57
50852;BME280;43953;45.508;-122.806;2023-04-10T00:02:38;101152.53;;;14.59;69.59
50852;BME280;43953;45.508;-122.806;2023-04-10T00:03:10;101153.56;;;14.57;69.11
50852;BME280;43953;45.508;-122.806;2023-04-10T00:03:42;101153.56;;;14.57;69.56
50852;BME280;43953;45.508;-122.806;2023-04-10T00:04:14;101160.88;;;14.57;69.32
50852;BME280;43953;45.508;-122.806;2023-04-10T00:04:46;101154.63;;;14.56;69.63
50852;BME280;43953;45.508;-122.806;2023-04-10T00:05:17;101150.84;;;14.57;69.23
50852;BME280;43953;45.508;-122.806;2023-04-10T00:05:49;101155.22;;;14.59;69.34
50852;BME280;43953;45.508;-122.806;2023-04-10T00:06:21;101156.88;;;14.60;69.36
50852;BME280;43953;45.508;-122.806;2023-04-10T00:06:53;101154.16;;;14.60;69.60
50852;BME280;43953;45.508;-122.806;2023-04-10T00:07:25;101148.75;;;14.60;69.48
50852;BME280;43953;45.508;-122.806;2023-04-10T00:07:57;101153.09;;;14.61;69.41
50852;BME280;43953;45.508;-122.806;2023-04-10T00:08:29;101153.09;;;14.61;69.39
50852;BME280;43953;45.508;-122.806;2023-04-10T00:09:01;101153.97;;;14.61;69.47
50852;BME280;43953;45.508;-122.806;2023-04-10T00:09:32;101152.06;;;14.62;69.46
50852;BME280;43953;45.508;-122.806;2023-04-10T00:10:04;101153.09;;;14.61;69.42
50852;BME280;43953;45.508;-122.806;2023-04-10T00:10:36;101146.66;;;14.62;69.24
50852;BME280;43953;45.508;-122.806;2023-04-10T00:11:08;101147.47;;;14.62;69.38
50852;BME280;43953;45.508;-122.806;2023-04-10T00:11:40;101155.38;;;14.64;69.34
50852;BME280;43953;45.508;-122.806;2023-04-10T00:12:11;101152.91;;;14.62;69.32
50852;BME280;43953;45.508;-122.806;2023-04-10T00:12:43;101146.41;;;14.63;69.33
50852;BME280;43953;45.508;-122.806;2023-04-10T00:13:15;101143.69;;;14.63;69.10
50852;BME280;43953;45.508;-122.806;2023-04-10T00:13:47;101146.41;;;14.63;69.21
50852;BME280;43953;45.508;-122.806;2023-04-10T00:14:19;101151.63;;;14.65;69.41
50852;BME280;43953;45.508;-122.806;2023-04-10T00:14:53;101148.91;;;14.65;69.26
50852;BME280;43953;45.508;-122.806;2023-04-10T00:15:25;101149.94;;;14.64;69.32
50852;BME280;43953;45.508;-122.806;2023-04-10T00:15:57;101146.19;;;14.65;69.16
50852;BME280;43953;45.508;-122.806;2023-04-10T00:16:28;101154.53;;;14.63;69.20
50852;BME280;43953;45.508;-122.806;2023-04-10T00:17:00;101149.94;;;14.64;69.16
50852;BME280;43953;45.508;-122.806;2023-04-10T00:17:32;101157.03;;;14.65;69.22
50852;BME280;43953;45.508;-122.806;2023-04-10T00:18:04;101144.53;;;14.64;69.28
50852;BME280;43953;45.508;-122.806;2023-04-10T00:18:36;101155.38;;;14.64;69.45
50852;BME280;43953;45.508;-122.806;2023-04-10T00:19:07;101148.28;;;14.63;69.41
50852;BME280;43953;45.508;-122.806;2023-04-10T00:19:39;101148.28;;;14.63;69.51
50852;BME280;43953;45.508;-122.806;2023-04-10T00:20:11;101147.47;;;14.62;69.71
50852;BME280;43953;45.508;-122.806;2023-04-10T00:20:43;101153.72;;;14.63;69.49
50852;BME280;43953;45.508;-122.806;2023-04-10T00:21:15;101149.94;;;14.64;69.44
50852;BME280;43953;45.508;-122.806;2023-04-10T00:21:47;101145.59;;;14.63;69.38
50852;BME280;43953;45.508;-122.806;2023-04-10T00:22:19;101146.19;;;14.65;69.44
50852;BME280;43953;45.508;-122.806;2023-04-10T00:22:50;101154.09;;;14.66;69.45
50852;BME280;43953;45.508;-122.806;2023-04-10T00:23:22;101158.69;;;14.66;69.24
50852;BME280;43953;45.508;-122.806;2023-04-10T00:23:54;101154.91;;;14.67;69.34
50852;BME280;43953;45.508;-122.806;2023-04-10T00:24:26;101156.81;;;14.66;69.33
50852;BME280;43953;45.508;-122.806;2023-04-10T00:24:57;101151.38;;;14.66;69.25
50852;BME280;43953;45.508;-122.806;2023-04-10T00:25:29;101153.28;;;14.66;69.46
50852;BME280;43953;45.508;-122.806;2023-04-10T00:26:01;101151.38;;;14.66;69.20
50852;BME280;43953;45.508;-122.806;2023-04-10T00:26:33;101145.97;;;14.66;69.34
50852;BME280;43953;45.508;-122.806;2023-04-10T00:27:05;101151.63;;;14.65;69.29
50852;BME280;43953;45.508;-122.806;2023-04-10T00:27:37;101146.41;;;14.63;69.44
50852;BME280;43953;45.508;-122.806;2023-04-10T00:28:08;101137.47;;;14.63;69.32
50852;BME280;43953;45.508;-122.806;2023-04-10T00:28:40;101155.97;;;14.66;69.57
50852;BME280;43953;45.508;-122.806;2023-04-10T00:29:12;101150.78;;;14.64;69.47
50852;BME280;43953;45.508;-122.806;2023-04-10T00:29:44;101145.38;;;14.64;69.46
50852;BME280;43953;45.508;-122.806;2023-04-10T00:30:16;101148.28;;;14.63;69.62
50852;BME280;43953;45.508;-122.806;2023-04-10T00:30:47;101145.59;;;14.63;69.60
50852;BME280;43953;45.508;-122.806;2023-04-10T00:31:19;101142.88;;;14.63;69.40
50852;BME280;43953;45.508;-122.806;2023-04-10T00:31:51;101138.28;;;14.63;69.54
50852;BME280;43953;45.508;-122.806;2023-04-10T00:32:23;101141.81;;;14.64;69.53
50852;BME280;43953;45.508;-122.806;2023-04-10T00:32:55;101141.81;;;14.64;69.56
50852;BME280;43953;45.508;-122.806;2023-04-10T00:33:26;101141.00;;;14.63;69.52
50852;BME280;43953;45.508;-122.806;2023-04-10T00:33:58;101136.38;;;14.64;69.36
50852;BME280;43953;45.508;-122.806;2023-04-10T00:34:30;101140.78;;;14.65;69.34
50852;BME280;43953;45.508;-122.806;2023-04-10T00:35:02;101135.34;;;14.65;69.38
50852;BME280;43953;45.508;-122.806;2023-04-10T00:35:34;101135.34;;;14.65;69.45
50852;BME280;43953;45.508;-122.806;2023-04-10T00:36:06;101140.31;;;14.68;69.52
50852;BME280;43953;45.508;-122.806;2023-04-10T00:36:37;101134.91;;;14.68;69.32
50852;BME280;43953;45.508;-122.806;2023-04-10T00:37:09;101141.16;;;14.68;69.48
50852;BME280;43953;45.508;-122.806;2023-04-10T00:37:41;101140.91;;;14.70;69.48
50852;BME280;43953;45.508;-122.806;2023-04-10T00:38:13;101143.63;;;14.70;69.63
50852;BME280;43953;45.508;-122.806;2023-04-10T00:38:45;101142.78;;;14.69;69.45
50852;BME280;43953;45.508;-122.806;2023-04-10T00:39:16;101136.56;;;14.69;69.54
50852;BME280;43953;45.508;-122.806;2023-04-10T00:39:48;101143.63;;;14.70;69.56
50852;BME280;43953;45.508;-122.806;2023-04-10T00:40:20;101141.97;;;14.69;69.67
50852;BME280;43953;45.508;-122.806;2023-04-10T00:40:52;101142.78;;;14.69;69.47
50852;BME280;43953;45.508;-122.806;2023-04-10T00:41:24;101143.88;;;14.68;69.55
50852;BME280;43953;45.508;-122.806;2023-04-10T00:41:56;101144.69;;;14.69;69.48
50852;BME280;43953;45.508;-122.806;2023-04-10T00:42:28;101140.91;;;14.70;69.44
50852;BME280;43953;45.508;-122.806;2023-04-10T00:43:00;101141.16;;;14.68;69.73
50852;BME280;43953;45.508;-122.806;2023-04-10T00:43:31;101136.56;;;14.69;69.51
50852;BME280;43953;45.508;-122.806;2023-04-10T00:44:03;101136.78;;;14.67;69.57
50852;BME280;43953;45.508;-122.806;2023-04-10T00:44:35;101146.56;;;14.68;69.63
50852;BME280;43953;45.508;-122.806;2023-04-10T00:45:08;101139.25;;;14.69;69.68
50852;BME280;43953;45.508;-122.806;2023-04-10T00:45:40;101141.97;;;14.69;69.49
50852;BME280;43953;45.508;-122.806;2023-04-10T00:46:12;101146.34;;;14.70;69.70
50852;BME280;43953;45.508;-122.806;2023-04-10T00:46:44;101139.88;;;14.71;69.57
50852;BME280;43953;45.508;-122.806;2023-04-10T00:47:16;101131.75;;;14.71;69.45
50852;BME280;43953;45.508;-122.806;2023-04-10T00:47:48;101137.16;;;14.71;69.42
50852;BME280;43953;45.508;-122.806;2023-04-10T00:48:19;101139.06;;;14.70;69.21
50852;BME280;43953;45.508;-122.806;2023-04-10T00:48:52;101145.28;;;14.71;69.25
50852;BME280;43953;45.508;-122.806;2023-04-10T00:49:25;101139.25;;;14.69;69.36
50852;BME280;43953;45.508;-122.806;2023-04-10T00:49:56;101142.22;;;14.67;69.54
50852;BME280;43953;45.508;-122.806;2023-04-10T00:50:28;101145.75;;;14.68;69.46
50852;BME280;43953;45.508;-122.806;2023-04-10T00:51:00;101140.78;;;14.65;69.67
50852;BME280;43953;45.508;-122.806;2023-04-10T00:51:32;101141.59;;;14.65;69.53
50852;BME280;43953;45.508;-122.806;2023-04-10T00:52:04;101134.91;;;14.68;69.47
50852;BME280;43953;45.508;-122.806;2023-04-10T00:52:36;101135.34;;;14.65;69.69
50852;BME280;43953;45.508;-122.806;2023-04-10T00:53:08;101129.94;;;14.65;69.52
50852;BME280;43953;45.508;-122.806;2023-04-10T00:53:39;101135.34;;;14.65;69.50
50852;BME280;43953;45.508;-122.806;2023-04-10T00:54:11;101142.66;;;14.64;69.50
50852;BME280;43953;45.508;-122.806;2023-04-10T00:54:43;101143.69;;;14.63;69.65
50852;BME280;43953;45.508;-122.806;2023-04-10T00:55:15;101142.06;;;14.62;69.68
50852;BME280;43953;45.508;-122.806;2023-04-10T00:55:48;101135.81;;;14.62;69.42
50852;BME280;43953;45.508;-122.806;2023-04-10T00:56:22;101142.88;;;14.63;69.45
50852;BME280;43953;45.508;-122.806;2023-04-10T00:56:55;101139.34;;;14.62;69.47
50852;BME280;43953;45.508;-122.806;2023-04-10T00:57:28;101136.63;;;14.62;69.49
50852;BME280;43953;45.508;-122.806;2023-04-10T00:58:00;101141.22;;;14.62;69.56
50852;BME280;43953;45.508;-122.806;2023-04-10T00:58:32;101140.41;;;14.61;69.77
50852;BME280;43953;45.508;-122.806;2023-04-10T00:59:04;101144.75;;;14.62;69.69
50852;BME280;43953;45.508;-122.806;2023-04-10T00:59:36;101142.06;;;14.62;69.64
50852;BME280;43953;45.508;-122.806;2023-04-10T01:00:08;101142.88;;;14.63;69.60
50852;BME280;43953;45.508;-122.806;2023-04-10T01:00:40;101145.59;;;14.63;69.51
50852;BME280;43953;45.508;-122.806;2023-04-10T01:01:12;101144.53;;;14.64;69.42
50852;BME280;43953;45.508;-122.806;2023-04-10T01:01:44;101143.50;;;14.65;69.52
50852;BME280;43953;45.508;-122.806;2023-04-10T01:02:16;101147.63;;;14.67;69.43
50852;BME280;43953;45.508;-122.806;2023-04-10T01:02:48;101146.56;;;14.68;69.50
50852;BME280;43953;45.508;-122.806;2023-04-10T01:03:20;101144.69;;;14.69;69.28
50852;BME280;43953;45.508;-122.806;2023-04-10T01:03:53;101148.00;;;14.71;69.26
50852;BME280;43953;45.508;-122.806;2023-04-10T01:04:25;101144.22;;;14.72;69.25
50852;BME280;43953;45.508;-122.806;2023-04-10T01:04:58;101146.13;;;14.71;69.19
50852;BME280;43953;45.508;-122.806;2023-04-10T01:05:36;101150.72;;;14.71;69.16
50852;BME280;43953;45.508;-122.806;2023-04-10T01:07:20;101144.53;;;14.64;68.97
50852;BME280;43953;45.508;-122.806;2023-04-10T01:08:57;101148.13;;;14.57;69.01
50852;BME280;43953;45.508;-122.806;2023-04-10T01:10:37;101140.84;;;14.58;69.23
50852;BME280;43953;45.508;-122.806;2023-04-10T01:11:44;101141.69;;;14.59;69.14
50852;BME280;43953;45.508;-122.806;2023-04-10T01:14:15;101137.09;;;14.59;68.80
50852;BME280;43953;45.508;-122.806;2023-04-10T01:15:19;101138.72;;;14.60;68.95
50852;BME280;43953;45.508;-122.806;2023-04-10T01:16:15;101136.63;;;14.62;68.82
50852;BME280;43953;45.508;-122.806;2023-04-10T01:17:10;101134.53;;;14.64;68.41
50852;BME280;43953;45.508;-122.806;2023-04-10T01:18:00;101131.81;;;14.64;68.60
50852;BME280;43953;45.508;-122.806;2023-04-10T01:18:43;101138.66;;;14.67;68.48
50852;BME280;43953;45.508;-122.806;2023-04-10T01:20:04;101138.66;;;14.67;68.68
50852;BME280;43953;45.508;-122.806;2023-04-10T01:20:41;101137.81;;;14.66;68.85
50852;BME280;43953;45.508;-122.806;2023-04-10T01:21:14;101142.22;;;14.67;68.57
50852;BME280;43953;45.508;-122.806;2023-04-10T01:21:47;101137.81;;;14.66;68.69
50852;BME280;43953;45.508;-122.806;2023-04-10T01:22:23;101136.78;;;14.67;68.65
50852;BME280;43953;45.508;-122.806;2023-04-10T01:26:06;101139.34;;;14.62;68.58
50852;BME280;43953;45.508;-122.806;2023-04-10T01:27:24;101142.88;;;14.63;68.69
50852;BME280;43953;45.508;-122.806;2023-04-10T01:27:53;101140.16;;;14.63;68.60
50852;BME280;43953;45.508;-122.806;2023-04-10T01:29:25;101139.09;;;14.64;68.57
50852;BME280;43953;45.508;-122.806;2023-04-10T01:30:00;101143.69;;;14.63;68.56
50852;BME280;43953;45.508;-122.806;2023-04-10T01:30:34;101140.78;;;14.65;68.72
50852;BME280;43953;45.508;-122.806;2023-04-10T01:31:09;101141.00;;;14.63;68.63
50852;BME280;43953;45.508;-122.806;2023-04-10T01:32:07;101143.50;;;14.65;68.58
50852;BME280;43953;45.508;-122.806;2023-04-10T01:32:38;101141.00;;;14.63;68.72
50852;BME280;43953;45.508;-122.806;2023-04-10T01:33:12;101144.53;;;14.64;68.74
50852;BME280;43953;45.508;-122.806;2023-04-10T01:33:53;101139.34;;;14.62;68.74
50852;BME280;43953;45.508;-122.806;2023-04-10T01:34:45;101141.22;;;14.62;68.64
50852;BME280;43953;45.508;-122.806;2023-04-10T01:35:18;101141.22;;;14.62;68.59
50852;BME280;43953;45.508;-122.806;2023-04-10T01:35:52;101146.66;;;14.62;68.67
50852;BME280;43953;45.508;-122.806;2023-04-10T01:36:46;101143.94;;;14.62;68.77
50852;BME280;43953;45.508;-122.806;2023-04-10T01:37:26;101142.25;;;14.61;68.80
50852;BME280;43953;45.508;-122.806;2023-04-10T01:38:04;101143.13;;;14.61;68.76
50852;BME280;43953;45.508;-122.806;2023-04-10T01:38:39;101144.75;;;14.62;68.84
50852;BME280;43953;45.508;-122.806;2023-04-10T01:39:15;101146.41;;;14.63;68.74
50852;BME280;43953;45.508;-122.806;2023-04-10T01:39:53;101149.13;;;14.63;68.83
50852;BME280;43953;45.508;-122.806;2023-04-10T01:40:28;101147.22;;;14.64;68.71
50852;BME280;43953;45.508;-122.806;2023-04-10T01:41:02;101144.53;;;14.64;68.71
50852;BME280;43953;45.508;-122.806;2023-04-10T01:41:36;101139.97;;;14.64;68.78
50852;BME280;43953;45.508;-122.806;2023-04-10T01:42:10;101144.53;;;14.64;68.79
50852;BME280;43953;45.508;-122.806;2023-04-10T01:42:50;101148.91;;;14.65;68.70
50852;BME280;43953;45.508;-122.806;2023-04-10T01:43:24;101144.53;;;14.64;68.47
50852;BME280;43953;45.508;-122.806;2023-04-10T01:43:58;101142.06;;;14.62;68.78
50852;BME280;43953;45.508;-122.806;2023-04-10T01:44:31;101148.28;;;14.63;68.71
50852;BME280;43953;45.508;-122.806;2023-04-10T01:45:07;101147.47;;;14.62;68.76
50852;BME280;43953;45.508;-122.806;2023-04-10T01:45:44;101143.94;;;14.62;68.78
50852;BME280;43953;45.508;-122.806;2023-04-10T01:46:20;101142.88;;;14.63;68.87
50852;BME280;43953;45.508;-122.806;2023-04-10T01:46:54;101140.16;;;14.63;68.74
50852;BME280;43953;45.508;-122.806;2023-04-10T01:47:27;101143.69;;;14.63;68.82
50852;BME280;43953;45.508;-122.806;2023-04-10T01:48:00;101143.50;;;14.65;68.73
50852;BME280;43953;45.508;-122.806;2023-04-10T01:48:32;101145.38;;;14.64;68.73
50852;BME280;43953;45.508;-122.806;2023-04-10T01:49:04;101145.38;;;14.64;68.72
50852;BME280;43953;45.508;-122.806;2023-04-10T01:49:37;101141.81;;;14.64;68.63
50852;BME280;43953;45.508;-122.806;2023-04-10T01:50:15;101144.53;;;14.64;68.73
50852;BME280;43953;45.508;-122.806;2023-04-10T01:50:47;101140.78;;;14.65;68.78
50852;BME280;43953;45.508;-122.806;2023-04-10T01:51:21;101139.09;;;14.64;68.72
50852;BME280;43953;45.508;-122.806;2023-04-10T01:51:55;101143.50;;;14.65;68.72
50852;BME280;43953;45.508;-122.806;2023-04-10T01:52:29;101141.38;;;14.67;68.66
50852;BME280;43953;45.508;-122.806;2023-04-10T01:53:04;101148.66;;;14.66;68.76
50852;BME280;43953;45.508;-122.806;2023-04-10T01:53:36;101142.44;;;14.66;68.61
50852;BME280;43953;45.508;-122.806;2023-04-10T01:54:09;101142.22;;;14.67;68.76
50852;BME280;43953;45.508;-122.806;2023-04-10T01:54:41;101146.78;;;14.67;68.63
50852;BME280;43953;45.508;-122.806;2023-04-10T01:55:15;101141.38;;;14.67;68.59
50852;BME280;43953;45.508;-122.806;2023-04-10T01:55:49;101140.31;;;14.68;68.58
50852;BME280;43953;45.508;-122.806;2023-04-10T01:56:21;101140.31;;;14.68;68.57
50852;BME280;43953;45.508;-122.806;2023-04-10T01:56:53;101141.38;;;14.67;68.74
50852;BME280;43953;45.508;-122.806;2023-04-10T01:57:25;101144.94;;;14.67;68.59
50852;BME280;43953;45.508;-122.806;2023-04-10T01:57:57;101140.31;;;14.68;68.71
50852;BME280;43953;45.508;-122.806;2023-04-10T01:58:29;101147.63;;;14.67;68.61
50852;BME280;43953;45.508;-122.806;2023-04-10T01:59:01;101147.63;;;14.67;68.56
50852;BME280;43953;45.508;-122.806;2023-04-10T01:59:34;101147.63;;;14.67;68.57
50852;BME280;43953;45.508;-122.806;2023-04-10T02:00:06;101142.22;;;14.67;68.62
50852;BME280;43953;45.508;-122.806;2023-04-10T02:00:38;101144.06;;;14.67;68.50
50852;BME280;43953;45.508;-122.806;2023-04-10T02:01:18;101143.03;;;14.68;68.58
50852;BME280;43953;45.508;-122.806;2023-04-10T02:01:59;101149.72;;;14.65;68.40
50852;BME280;43953;45.508;-122.806;2023-04-10T02:02:32;101146.78;;;14.67;68.56
50852;BME280;43953;45.508;-122.806;2023-04-10T02:03:04;101143.25;;;14.66;68.58
50852;BME280;43953;45.508;-122.806;2023-04-10T02:03:36;101151.16;;;14.68;68.49
50852;BME280;43953;45.508;-122.806;2023-04-10T02:04:08;101142.44;;;14.66;68.54
50852;BME280;43953;45.508;-122.806;2023-04-10T02:04:39;101151.63;;;14.65;68.65
50852;BME280;43953;45.508;-122.806;2023-04-10T02:05:11;101151.63;;;14.65;68.62
50852;BME280;43953;45.508;-122.806;2023-04-10T02:06:14;101144.53;;;14.64;68.61
50852;BME280;43953;45.508;-122.806;2023-04-10T02:07:10;101148.28;;;14.63;69.02
50852;BME280;43953;45.508;-122.806;2023-04-10T02:07:58;101151.84;;;14.63;68.72
50852;BME280;43953;45.508;-122.806;2023-04-10T02:08:56;101152.91;;;14.62;68.85
50852;BME280;43953;45.508;-122.806;2023-04-10T02:10:27;101148.28;;;14.63;68.67
50852;BME280;43953;45.508;-122.806;2023-04-10T02:11:30;101151.00;;;14.63;68.68
50852;BME280;43953;45.508;-122.806;2023-04-10T02:12:06;101148.28;;;14.63;68.62
50852;BME280;43953;45.508;-122.806;2023-04-10T02:13:20;101155.38;;;14.64;68.83
50852;BME280;43953;45.508;-122.806;2023-04-10T02:13:52;101150.78;;;14.64;68.54
50852;BME280;43953;45.508;-122.806;2023-04-10T02:14:27;101142.66;;;14.64;68.55
50852;BME280;43953;45.508;-122.806;2023-04-10T02:15:03;101155.38;;;14.64;68.57
50852;BME280;43953;45.508;-122.806;2023-04-10T02:15:40;101147.22;;;14.64;68.57
50852;BME280;43953;45.508;-122.806;2023-04-10T02:16:13;101154.34;;;14.65;68.65
50852;BME280;43953;45.508;-122.806;2023-04-10T02:16:50;101159.13;;;14.63;68.58
50852;BME280;43953;45.508;-122.806;2023-04-10T02:17:27;101149.13;;;14.63;68.57
50852;BME280;43953;45.508;-122.806;2023-04-10T02:18:01;101148.28;;;14.63;68.76
50852;BME280;43953;45.508;-122.806;2023-04-10T02:18:39;101151.00;;;14.63;68.83
50852;BME280;43953;45.508;-122.806;2023-04-10T02:19:12;101152.66;;;14.64;68.66
50852;BME280;43953;45.508;-122.806;2023-04-10T02:19:45;101147.22;;;14.64;68.71
50852;BME280;43953;45.508;-122.806;2023-04-10T02:20:18;101152.06;;;14.62;68.64
50852;BME280;43953;45.508;-122.806;2023-04-10T02:20:50;101159.13;;;14.63;68.54
50852;BME280;43953;45.508;-122.806;2023-04-10T02:21:22;101163.72;;;14.62;68.73
50852;BME280;43953;45.508;-122.806;2023-04-10T02:21:54;101155.59;;;14.62;68.68
50852;BME280;43953;45.508;-122.806;2023-04-10T02:22:27;101152.91;;;14.62;68.74
50852;BME280;43953;45.508;-122.806;2023-04-10T02:22:59;101159.13;;;14.63;68.51
50852;BME280;43953;45.508;-122.806;2023-04-10T02:23:34;101159.97;;;14.63;68.82
50852;BME280;43953;45.508;-122.806;2023-04-10T02:24:07;101156.44;;;14.63;68.63
50852;BME280;43953;45.508;-122.806;2023-04-10T02:24:38;101163.50;;;14.64;68.67
50852;BME280;43953;45.508;-122.806;2023-04-10T02:25:10;101160.78;;;14.64;68.69
50852;BME280;43953;45.508;-122.806;2023-04-10T02:25:42;101166.22;;;14.64;68.70
50852;BME280;43953;45.508;-122.806;2023-04-10T02:26:14;101162.66;;;14.63;68.62
50852;BME280;43953;45.508;-122.806;2023-04-10T02:26:47;101163.72;;;14.62;68.59
50852;BME280;43953;45.508;-122.806;2023-04-10T02:27:27;101162.91;;;14.62;68.78
50852;BME280;43953;45.508;-122.806;2023-04-10T02:28:06;101162.09;;;14.61;69.02
50852;BME280;43953;45.508;-122.806;2023-04-10T02:28:38;101167.50;;;14.61;68.78
50852;BME280;43953;45.508;-122.806;2023-04-10T02:29:10;101168.34;;;14.62;68.79
50852;BME280;43953;45.508;-122.806;2023-04-10T02:29:42;101168.34;;;14.62;68.92
50852;BME280;43953;45.508;-122.806;2023-04-10T02:30:14;101162.91;;;14.62;68.88
50852;BME280;43953;45.508;-122.806;2023-04-10T02:30:46;101168.34;;;14.62;68.97
50852;BME280;43953;45.508;-122.806;2023-04-10T02:31:18;101166.66;;;14.61;68.91
50852;BME280;43953;45.508;-122.806;2023-04-10T02:31:50;101165.00;;;14.60;68.81
50852;BME280;43953;45.508;-122.806;2023-04-10T02:32:22;101172.53;;;14.57;68.92
50852;BME280;43953;45.508;-122.806;2023-04-10T02:32:54;101176.91;;;14.59;69.06
50852;BME280;43953;45.508;-122.806;2023-04-10T02:33:26;101168.16;;;14.56;69.12
50852;BME280;43953;45.508;-122.806;2023-04-10T02:33:57;101167.09;;;14.57;69.04
50852;BME280;43953;45.508;-122.806;2023-04-10T02:34:29;101165.47;;;14.56;69.00
50852;BME280;43953;45.508;-122.806;2023-04-10T02:35:01;101174.19;;;14.59;69.27
50852;BME280;43953;45.508;-122.806;2023-04-10T02:35:33;101161.69;;;14.57;68.97
50852;BME280;43953;45.508;-122.806;2023-04-10T02:36:06;101169.59;;;14.59;68.97
50852;BME280;43953;45.508;-122.806;2023-04-10T02:36:38;101165.84;;;14.60;69.43
50852;BME280;43953;45.508;-122.806;2023-04-10T02:37:10;101162.09;;;14.61;69.03
50852;BME280;43953;45.508;-122.806;2023-04-10T02:37:42;101165.00;;;14.60;69.06
50852;BME280;43953;45.508;-122.806;2023-04-10T02:38:14;101166.22;;;14.64;69.01
50852;BME280;43953;45.508;-122.806;2023-04-10T02:38:45;101160.78;;;14.64;68.97
50852;BME280;43953;45.508;-122.806;2023-04-10T02:39:17;101166.00;;;14.65;68.96
50852;BME280;43953;45.508;-122.806;2023-04-10T02:39:49;101164.94;;;14.66;69.06
50852;BME280;43953;45.508;-122.806;2023-04-10T02:40:21;101165.16;;;14.65;68.97
50852;BME280;43953;45.508;-122.806;2023-04-10T02:40:53;101167.88;;;14.65;69.07
50852;BME280;43953;45.508;-122.806;2023-04-10T02:41:24;101171.63;;;14.64;68.98
50852;BME280;43953;45.508;-122.806;2023-04-10T02:41:56;101170.81;;;14.63;68.93
50852;BME280;43953;45.508;-122.806;2023-04-10T02:42:28;101166.44;;;14.62;69.12
50852;BME280;43953;45.508;-122.806;2023-04-10T02:42:59;101169.97;;;14.63;69.11
50852;BME280;43953;45.508;-122.806;2023-04-10T02:43:31;101171.03;;;14.62;69.10
50852;BME280;43953;45.508;-122.806;2023-04-10T02:44:03;101168.34;;;14.62;69.28
50852;BME280;43953;45.508;-122.806;2023-04-10T02:44:35;101167.50;;;14.61;69.29
50852;BME280;43953;45.508;-122.806;2023-04-10T02:45:07;101166.06;;;14.59;69.16
50852;BME280;43953;45.508;-122.806;2023-04-10T02:45:39;101172.06;;;14.61;69.37
50852;BME280;43953;45.508;-122.806;2023-04-10T02:46:11;101172.06;;;14.61;69.22
50852;BME280;43953;45.508;-122.806;2023-04-10T02:46:43;101171.25;;;14.60;69.38
50852;BME280;43953;45.508;-122.806;2023-04-10T02:47:16;101167.50;;;14.61;69.43
50852;BME280;43953;45.508;-122.806;2023-04-10T02:47:48;101166.91;;;14.59;69.57
50852;BME280;43953;45.508;-122.806;2023-04-10T02:48:20;101164.19;;;14.59;69.49
50852;BME280;43953;45.508;-122.806;2023-04-10T02:48:52;101160.88;;;14.57;69.58
50852;BME280;43953;45.508;-122.806;2023-04-10T02:49:24;101166.06;;;14.59;69.60
50852;BME280;43953;45.508;-122.806;2023-04-10T02:49:56;101167.94;;;14.58;69.63
50852;BME280;43953;45.508;-122.806;2023-04-10T02:50:27;101168.78;;;14.59;69.69
50852;BME280;43953;45.508;-122.806;2023-04-10T02:51:00;101166.28;;;14.57;69.65
50852;BME280;43953;45.508;-122.806;2023-04-10T02:51:35;101169.81;;;14.57;69.60
50852;BME280;43953;45.508;-122.806;2023-04-10T02:52:07;101169.81;;;14.57;69.65
50852;BME280;43953;45.508;-122.806;2023-04-10T02:52:39;101170.88;;;14.56;69.73
50852;BME280;43953;45.508;-122.806;2023-04-10T02:53:15;101165.47;;;14.56;69.80
50852;BME280;43953;45.508;-122.806;2023-04-10T02:53:47;101168.16;;;14.56;69.82
50852;BME280;43953;45.508;-122.806;2023-04-10T02:54:19;101172.75;;;14.56;69.86
50852;BME280;43953;45.508;-122.806;2023-04-10T02:54:51;101164.63;;;14.56;69.92
50852;BME280;43953;45.508;-122.806;2023-04-10T02:55:23;101168.38;;;14.55;69.75
50852;BME280;43953;45.508;-122.806;2023-04-10T02:55:55;101174.66;;;14.55;69.90
50852;BME280;43953;45.508;-122.806;2023-04-10T02:56:27;101176.75;;;14.53;70.04
50852;BME280;43953;45.508;-122.806;2023-04-10T02:56:59;101176.13;;;14.51;69.99
50852;BME280;43953;45.508;-122.806;2023-04-10T02:57:33;101171.75;;;14.50;70.01
50852;BME280;43953;45.508;-122.806;2023-04-10T02:58:05;101173.63;;;14.50;70.02
50852;BME280;43953;45.508;-122.806;2023-04-10T02:58:37;101178.22;;;14.49;70.07
50852;BME280;43953;45.508;-122.806;2023-04-10T02:59:10;101177.38;;;14.49;70.29
50852;BME280;43953;45.508;-122.806;2023-04-10T02:59:43;101177.59;;;14.47;70.25
50852;BME280;43953;45.508;-122.806;2023-04-10T03:00:15;101180.09;;;14.49;70.27
50852;BME280;43953;45.508;-122.806;2023-04-10T03:00:50;101176.78;;;14.47;70.41
50852;BME280;43953;45.508;-122.806;2023-04-10T03:01:22;101176.56;;;14.48;70.25
50852;BME280;43953;45.508;-122.806;2023-04-10T03:01:53;101182.22;;;14.47;70.47
50852;BME280;43953;45.508;-122.806;2023-04-10T03:02:25;101176.78;;;14.47;70.39
50852;BME280;43953;45.508;-122.806;2023-04-10T03:02:57;101183.84;;;14.48;70.32